createdAt,value
2022-12-04T00:03:44.062Z,12.95
2022-12-04T00:07:45.728Z,11.52
2022-12-04T00:11:47.363Z,11.57
2022-12-04T00:15:49.002Z,11.98
2022-12-04T00:19:50.601Z,10.68
2022-12-04T00:23:53.507Z,12.30
2022-12-04T00:27:55.106Z,12.63
2022-12-04T00:31:56.826Z,13.05
2022-12-04T00:36:00.219Z,11.30
2022-12-04T00:40:01.978Z,13.68
2022-12-04T00:44:03.836Z,12.52
2022-12-04T00:48:05.607Z,11.63
2022-12-04T00:52:07.782Z,12.93
2022-12-04T00:56:12.261Z,14.23
2022-12-04T01:00:14.076Z,12.20
2022-12-04T01:04:15.687Z,13.00
2022-12-04T01:08:17.395Z,15.48
2022-12-04T01:12:20.882Z,12.88
2022-12-04T01:16:34.430Z,13.88
2022-12-04T01:20:36.598Z,12.30
2022-12-04T01:24:38.258Z,11.45
2022-12-04T01:28:40.660Z,12.10
2022-12-04T01:32:42.262Z,12.10
2022-12-04T01:36:43.886Z,11.68
2022-12-04T01:40:45.481Z,12.43
2022-12-04T01:45:31.767Z,12.43
2022-12-04T01:49:36.663Z,11.15
2022-12-04T01:53:42.537Z,12.13
2022-12-04T01:57:45.940Z,13.43
2022-12-04T02:02:00.630Z,14.20
2022-12-04T02:06:02.386Z,12.00
2022-12-04T02:10:06.653Z,13.45
2022-12-04T02:14:14.095Z,13.23
2022-12-04T02:18:35.487Z,11.35
2022-12-04T02:23:04.242Z,11.95
2022-12-04T02:27:13.762Z,12.45
2022-12-04T02:31:28.214Z,12.95
2022-12-04T02:36:09.095Z,11.85
2022-12-04T02:40:33.833Z,14.15
2022-12-04T02:44:49.370Z,11.23
2022-12-04T02:48:54.499Z,13.70
2022-12-04T02:53:03.206Z,12.27
2022-12-04T02:57:08.725Z,11.65
2022-12-04T03:01:21.252Z,12.63
2022-12-04T03:05:33.875Z,12.27
2022-12-04T03:09:46.958Z,14.02
2022-12-04T03:13:54.774Z,10.00
2022-12-04T03:18:05.915Z,12.32
2022-12-04T03:22:13.181Z,12.25
2022-12-04T03:26:43.398Z,11.77
2022-12-04T03:30:53.704Z,12.57
2022-12-04T03:35:06.983Z,12.00
2022-12-04T03:39:15.171Z,12.43
2022-12-04T03:43:24.783Z,12.68
2022-12-04T03:47:55.802Z,11.63
2022-12-04T03:52:03.611Z,11.55
2022-12-04T03:56:20.351Z,13.30
2022-12-04T04:00:23.096Z,15.52
2022-12-04T04:04:32.098Z,11.73
2022-12-04T04:08:38.635Z,12.77
2022-12-04T04:12:46.446Z,12.52
2022-12-04T04:17:18.510Z,12.93
2022-12-04T04:21:42.925Z,11.82
2022-12-04T04:25:46.709Z,12.35
2022-12-04T04:29:52.536Z,14.45
2022-12-04T04:38:21.194Z,13.60
2022-12-04T04:42:30.800Z,14.93
2022-12-04T04:46:37.683Z,11.75
2022-12-04T04:50:40.124Z,12.38
2022-12-04T04:54:42.037Z,13.23
2022-12-04T04:58:43.878Z,15.90
2022-12-04T05:02:46.247Z,12.85
2022-12-04T05:06:48.938Z,10.48
2022-12-04T05:10:50.631Z,13.43
2022-12-04T05:14:52.263Z,13.23
2022-12-04T05:19:12.788Z,12.55
2022-12-04T05:23:14.361Z,13.75
2022-12-04T05:27:16.075Z,10.52
2022-12-04T05:31:18.087Z,12.15
2022-12-04T05:35:19.798Z,12.88
2022-12-04T05:39:21.426Z,13.05
2022-12-04T05:43:23.048Z,13.90
2022-12-04T05:47:24.902Z,12.30
2022-12-04T05:51:26.567Z,12.30
2022-12-04T05:55:28.317Z,11.85
2022-12-04T05:59:29.937Z,10.88
2022-12-04T06:03:31.568Z,13.40
2022-12-04T06:07:33.287Z,12.35
2022-12-04T06:11:37.467Z,12.63
2022-12-04T06:15:40.225Z,11.43
2022-12-04T06:19:41.855Z,11.05
2022-12-04T06:23:43.690Z,11.93
2022-12-04T06:27:45.267Z,12.15
2022-12-04T06:31:47.117Z,12.80
2022-12-04T06:35:57.218Z,12.18
2022-12-04T06:39:59.122Z,13.35
2022-12-04T06:44:01.001Z,13.43
2022-12-04T06:48:02.857Z,12.05
2022-12-04T06:52:04.539Z,13.82
2022-12-04T06:56:09.525Z,12.27
2022-12-04T07:00:11.526Z,11.25
2022-12-04T07:04:13.140Z,13.98
2022-12-04T07:08:15.605Z,12.00
2022-12-04T07:12:17.345Z,13.32
2022-12-04T07:16:20.994Z,12.80
2022-12-04T07:20:22.639Z,14.02
2022-12-04T07:24:24.233Z,11.85
2022-12-04T07:28:25.844Z,12.63
2022-12-04T07:32:27.489Z,13.00
2022-12-04T07:36:29.136Z,10.57
2022-12-04T07:40:31.019Z,12.90
2022-12-04T07:44:32.650Z,12.88
2022-12-04T07:48:34.434Z,11.88
2022-12-04T07:52:39.616Z,11.95
2022-12-04T07:56:41.309Z,12.98
2022-12-04T08:00:42.903Z,12.57
2022-12-04T08:04:44.600Z,12.15
2022-12-04T08:08:47.225Z,13.48
2022-12-04T08:12:48.853Z,12.23
2022-12-04T08:16:52.861Z,12.30
2022-12-04T08:20:54.777Z,11.93
2022-12-04T08:24:56.383Z,12.27
2022-12-04T08:28:58.616Z,14.48
2022-12-04T08:33:00.248Z,11.88
2022-12-04T08:37:01.959Z,13.40
2022-12-04T08:41:07.821Z,14.30
2022-12-04T08:45:10.137Z,14.68
2022-12-04T08:49:11.757Z,11.20
2022-12-04T08:53:13.419Z,11.13
2022-12-04T08:57:15.081Z,11.73
2022-12-04T09:01:17.535Z,11.38
2022-12-04T09:05:19.213Z,12.70
2022-12-04T09:09:20.863Z,12.85
2022-12-04T09:13:23.673Z,11.50
2022-12-04T09:17:25.312Z,12.65
2022-12-04T09:21:27.077Z,13.77
2022-12-04T09:25:28.772Z,14.48
2022-12-04T09:29:30.366Z,13.15
2022-12-04T09:33:32.862Z,11.90
2022-12-04T09:37:36.524Z,10.93
2022-12-04T09:42:04.964Z,13.27
2022-12-04T09:46:12.475Z,14.13
2022-12-04T09:50:19.915Z,12.45
2022-12-04T09:54:25.990Z,11.90
2022-12-04T10:03:06.799Z,11.90
2022-12-04T10:07:19.894Z,13.18
2022-12-04T10:11:40.058Z,13.52
2022-12-04T10:16:22.045Z,12.07
2022-12-04T10:20:44.709Z,12.70
2022-12-04T10:24:56.453Z,15.10
2022-12-04T10:29:02.909Z,11.60
2022-12-04T10:33:15.618Z,14.27
2022-12-04T10:37:17.295Z,12.13
2022-12-04T10:41:46.561Z,13.15
2022-12-04T10:45:48.188Z,14.55
2022-12-04T10:49:56.191Z,12.85
2022-12-04T10:53:58.545Z,12.25
2022-12-04T10:58:00.219Z,11.82
2022-12-04T11:02:13.865Z,13.88
2022-12-04T11:06:15.689Z,13.70
2022-12-04T11:10:36.591Z,12.10
2022-12-04T11:14:39.860Z,12.32
2022-12-04T11:22:57.222Z,12.88
2022-12-04T11:26:59.130Z,12.43
2022-12-04T11:31:04.222Z,13.30
2022-12-04T11:35:24.661Z,12.90
2022-12-04T11:39:38.048Z,13.77
2022-12-04T11:43:51.374Z,13.77
2022-12-04T11:47:57.352Z,15.32
2022-12-04T11:52:29.859Z,13.63
2022-12-04T11:56:33.601Z,11.25
2022-12-04T12:00:42.201Z,13.95
2022-12-04T12:05:17.786Z,13.07
2022-12-04T12:09:38.225Z,12.77
2022-12-04T12:13:53.485Z,10.73
2022-12-04T12:18:19.211Z,12.05
2022-12-04T12:22:44.121Z,16.33
2022-12-04T12:27:21.530Z,12.35
2022-12-04T12:31:55.738Z,13.90
2022-12-04T12:36:10.184Z,12.20
2022-12-04T12:40:23.564Z,13.13
2022-12-04T12:44:47.120Z,12.55
2022-12-04T12:49:07.745Z,13.40
2022-12-04T12:53:16.690Z,14.32
2022-12-04T12:57:39.418Z,11.73
2022-12-04T13:01:52.763Z,12.23
2022-12-04T13:06:03.658Z,14.48
2022-12-04T13:10:14.539Z,12.38
2022-12-04T13:14:16.410Z,12.05
2022-12-04T13:18:39.590Z,12.77
2022-12-04T13:22:59.730Z,12.25
2022-12-04T13:27:25.998Z,12.10
2022-12-04T13:31:33.622Z,11.63
2022-12-04T13:35:47.102Z,12.48
2022-12-04T13:40:19.658Z,13.38
2022-12-04T13:44:23.963Z,13.25
2022-12-04T13:48:36.804Z,12.70
2022-12-04T13:52:41.652Z,11.68
2022-12-04T13:56:46.432Z,12.50
2022-12-04T14:00:48.080Z,10.32
2022-12-04T14:05:00.297Z,15.32
2022-12-04T14:09:18.158Z,11.73
2022-12-04T14:13:23.424Z,12.07
2022-12-04T14:17:38.067Z,12.93
2022-12-04T14:21:45.562Z,10.88
2022-12-04T14:25:47.198Z,12.85
2022-12-04T14:29:54.502Z,12.30
2022-12-04T14:33:59.625Z,11.82
2022-12-04T14:38:03.927Z,12.65
2022-12-04T14:42:14.464Z,13.38
2022-12-04T14:46:40.394Z,13.23
2022-12-04T14:50:57.122Z,13.63
2022-12-04T14:55:06.743Z,14.15
2022-12-04T14:59:19.824Z,14.00
2022-12-04T15:03:22.606Z,12.63
2022-12-04T15:07:28.127Z,11.35
2022-12-04T15:11:48.760Z,15.82
2022-12-04T15:15:50.902Z,11.50
2022-12-04T15:19:52.555Z,10.85
2022-12-04T15:23:54.211Z,12.43
2022-12-04T15:28:06.670Z,13.85
2022-12-04T15:32:11.907Z,13.43
2022-12-04T15:36:45.888Z,16.77
2022-12-04T15:41:05.888Z,26.45
2022-12-04T15:45:12.746Z,16.38
2022-12-04T15:49:18.579Z,18.17
2022-12-04T15:57:30.146Z,16.75
2022-12-04T16:01:39.664Z,16.63
2022-12-04T16:05:41.384Z,15.55
2022-12-04T16:09:52.122Z,16.00
2022-12-04T16:14:08.985Z,18.17
2022-12-04T16:18:14.021Z,15.00
2022-12-04T16:22:20.548Z,16.83
2022-12-04T16:26:22.344Z,17.92
2022-12-04T16:30:24.168Z,16.30
2022-12-04T16:34:25.817Z,15.98
2022-12-04T16:38:27.573Z,19.33
2022-12-04T16:42:29.881Z,15.15
2022-12-04T16:46:31.677Z,16.63
2022-12-04T16:50:33.340Z,18.25
2022-12-04T16:54:34.984Z,21.17
2022-12-04T16:58:36.932Z,15.45
2022-12-04T17:02:38.852Z,16.63
2022-12-04T17:06:40.626Z,18.33
2022-12-04T17:10:42.264Z,16.35
2022-12-04T17:14:43.844Z,16.70
2022-12-04T17:18:45.481Z,22.77
2022-12-04T17:22:47.817Z,49.85
2022-12-04T17:26:49.470Z,37.95
2022-12-04T17:30:51.090Z,27.58
2022-12-04T17:34:53.993Z,41.58
2022-12-04T17:38:57.492Z,26.25
2022-12-04T17:42:59.371Z,22.58
2022-12-04T17:47:01.235Z,22.52
2022-12-04T17:51:07.522Z,21.48
2022-12-04T17:55:09.484Z,20.50
2022-12-04T17:59:11.090Z,18.60
2022-12-04T18:03:12.822Z,21.45
2022-12-04T18:07:14.627Z,18.65
2022-12-04T18:11:16.986Z,16.75
2022-12-04T18:15:18.646Z,18.65
2022-12-04T18:19:26.312Z,19.02
2022-12-04T18:23:29.165Z,20.42
2022-12-04T18:27:31.231Z,16.02
2022-12-04T18:31:33.871Z,15.98
2022-12-04T18:35:35.582Z,14.35
2022-12-04T18:39:37.207Z,17.15
2022-12-04T18:43:43.736Z,18.33
2022-12-04T18:47:47.112Z,18.02
2022-12-04T18:51:50.300Z,19.17
2022-12-04T18:55:53.108Z,20.00
2022-12-04T18:59:55.068Z,15.57
2022-12-04T19:03:59.459Z,20.88
2022-12-04T19:08:01.236Z,17.15
2022-12-04T19:12:02.961Z,17.10
2022-12-04T19:16:05.445Z,17.88
2022-12-04T19:20:07.960Z,18.88
2022-12-04T19:24:10.747Z,16.45
2022-12-04T19:28:12.359Z,15.75
2022-12-04T19:32:14.459Z,16.63
2022-12-04T19:36:16.771Z,20.40
2022-12-04T19:40:18.718Z,18.70
2022-12-04T19:44:47.949Z,19.65
2022-12-04T19:48:47.305Z,16.67
2022-12-04T19:52:49.106Z,16.75
2022-12-04T19:56:52.416Z,20.02
2022-12-04T20:00:56.409Z,16.40
2022-12-04T20:04:58.129Z,16.00
2022-12-04T20:09:01.823Z,16.65
2022-12-04T20:13:05.209Z,20.58
2022-12-04T20:17:06.947Z,15.10
2022-12-04T20:21:12.213Z,17.88
2022-12-04T20:25:14.074Z,15.40
2022-12-04T20:29:18.941Z,19.08
2022-12-04T20:33:20.575Z,15.73
2022-12-04T20:37:22.268Z,17.40
2022-12-04T20:41:25.710Z,17.35
2022-12-04T20:45:27.533Z,19.13
2022-12-04T20:49:29.214Z,16.92
2022-12-04T20:53:30.857Z,18.23
2022-12-04T20:57:34.534Z,16.00
2022-12-04T21:01:37.089Z,17.90
2022-12-04T21:05:38.750Z,16.67
2022-12-04T21:09:40.510Z,16.92
2022-12-04T21:14:00.808Z,16.80
2022-12-04T21:18:02.416Z,17.38
2022-12-04T21:22:04.173Z,17.50
2022-12-04T21:26:06.084Z,16.02
2022-12-04T21:30:08.495Z,16.40
2022-12-04T21:34:12.498Z,17.33
2022-12-04T21:38:14.081Z,16.48
2022-12-04T21:42:31.010Z,17.42
2022-12-04T21:46:32.797Z,18.23
2022-12-04T21:50:34.703Z,16.45
2022-12-04T21:54:36.481Z,17.20
2022-12-04T21:58:38.093Z,15.98
2022-12-04T22:02:40.007Z,13.45
2022-12-04T22:06:41.999Z,14.57
2022-12-04T22:10:46.445Z,15.63
2022-12-04T22:14:48.025Z,15.13
2022-12-04T22:18:52.994Z,15.30
2022-12-04T22:22:54.793Z,14.25
2022-12-04T22:26:56.469Z,15.30
2022-12-04T22:31:03.271Z,20.02
2022-12-04T22:35:05.366Z,16.60
2022-12-04T22:39:10.988Z,16.73
2022-12-04T22:43:12.829Z,17.33
2022-12-04T22:47:14.598Z,15.77
2022-12-04T22:51:19.243Z,15.45
2022-12-04T22:55:20.824Z,14.18
2022-12-04T22:59:22.435Z,15.27
2022-12-04T23:03:24.130Z,18.88
2022-12-04T23:07:25.825Z,14.45
2022-12-04T23:11:28.474Z,15.15
2022-12-04T23:15:30.382Z,14.77
2022-12-04T23:19:32.479Z,13.85
2022-12-04T23:23:36.257Z,15.40
2022-12-04T23:27:37.880Z,14.70
2022-12-04T23:31:39.715Z,16.08
2022-12-04T23:35:41.461Z,13.15
2022-12-04T23:39:43.053Z,16.65
2022-12-04T23:43:45.797Z,13.73
2022-12-04T23:47:47.787Z,13.73
2022-12-04T23:51:49.425Z,23.23
2022-12-04T23:56:12.725Z,14.55
